Time;durP1;ratioP1;P1;durP2;ratioP2;P2;SDS_P1;SDS_P2;PMS_P1;PMS_P2;Temp;Humidity;BMP_temperature;BMP_pressure;BME280_temperature;BME280_humidity;BME280_pressure;Samples;Min_cycle;Max_cycle;Signal;HPM_P1;HPM_P2
2022/10/20 00:08:03;;;;;;;29.90;15.80;;;;;;;3.14;78.98;99659.13;422142;1294;109551;-40
2022/10/20 00:18:10;;;;;;;33.40;18.70;;;;;;;2.98;78.98;99668.45;421992;1295;108415;-39
2022/10/20 00:28:17;;;;;;;32.50;18.00;;;;;;;2.85;78.88;99670.45;422399;1295;96671;-39
2022/10/20 00:38:24;;;;;;;38.20;17.70;;;;;;;2.85;79.15;99668.94;422158;1289;110834;-41
2022/10/20 00:48:32;;;;;;;37.90;18.00;;;;;;;2.79;79.17;99661.32;421751;1295;108499;-41
2022/10/20 00:58:40;;;;;;;32.30;18.00;;;;;;;2.72;79.33;99658.84;422135;1295;97846;-39
2022/10/20 01:08:48;;;;;;;34.70;17.60;;;;;;;2.47;79.12;99651.34;423238;1266;109894;-39
2022/10/20 01:18:54;;;;;;;23.50;14.00;;;;;;;2.28;79.06;99659.05;422945;1292;106837;-39
2022/10/20 01:29:05;;;;;;;24.80;14.50;;;;;;;2.19;79.05;99668.39;423216;1285;97492;-39
2022/10/20 01:39:16;;;;;;;21.30;12.20;;;;;;;2.21;79.17;99663.50;422984;1293;110113;-39
2022/10/20 01:49:25;;;;;;;24.70;12.60;;;;;;;2.22;79.37;99651.87;423097;1292;106936;-41
2022/10/20 01:59:47;;;;;;;27.90;14.90;;;;;;;1.99;79.24;99654.09;423571;1292;98584;-40
2022/10/20 02:09:54;;;;;;;27.50;13.70;;;;;;;1.81;79.33;99652.90;423078;1293;97886;-40
2022/10/20 02:20:04;;;;;;;23.60;13.30;;;;;;;1.71;79.32;99639.98;422916;1292;110705;-40
2022/10/20 02:30:12;;;;;;;;;;;;;;;1.73;79.44;99646.20;422962;1292;107656;-40
2022/10/20 02:40:21;;;;;;;18.30;12.60;;;;;;;1.80;79.54;99653.03;423055;1292;98454;-40
2022/10/20 02:50:28;;;;;;;18.80;11.20;;;;;;;1.72;79.36;99655.71;423145;1292;107776;-40
2022/10/20 03:00:35;;;;;;;22.40;12.30;;;;;;;1.51;79.49;99666.97;423059;1293;109672;-41
2022/10/20 03:10:42;;;;;;;30.60;15.50;;;;;;;1.36;79.53;99675.30;422795;1292;428620;-39
2022/10/20 03:20:50;;;;;;;33.10;14.40;;;;;;;1.19;79.35;99680.52;422902;1286;110459;-40
2022/10/20 03:30:58;;;;;;;29.30;14.10;;;;;;;1.17;79.40;99682.46;423372;1292;107575;-40
2022/10/20 03:41:05;;;;;;;25.60;14.00;;;;;;;1.21;79.56;99687.58;423281;1293;96689;-41
2022/10/20 03:51:14;;;;;;;32.60;16.60;;;;;;;1.19;79.62;99679.20;423302;1291;109238;-39
2022/10/20 04:01:18;;;;;;;;;;;;;;;1.03;79.74;99668.42;423137;1292;107130;-39
2022/10/20 04:11:26;;;;;;;27.00;15.90;;;;;;;0.92;79.94;99666.08;423147;1287;97888;-38
2022/10/20 04:21:33;;;;;;;24.20;16.90;;;;;;;0.94;79.94;99667.85;423220;1292;110750;-38
2022/10/20 04:31:40;;;;;;;29.50;16.80;;;;;;;0.98;79.87;99669.42;422958;1292;108405;-40
2022/10/20 04:41:53;;;;;;;29.70;18.20;;;;;;;1.11;80.02;99666.42;423052;1293;96712;-40
2022/10/20 04:51:59;;;;;;;46.90;27.30;;;;;;;1.12;79.90;99660.55;423104;1293;107892;-39
2022/10/20 05:02:07;;;;;;;101.90;52.60;;;;;;;0.97;80.21;99653.83;422946;1287;108116;-40
2022/10/20 05:12:14;;;;;;;120.80;71.80;;;;;;;1.00;80.31;99644.23;422753;1292;97504;-41
2022/10/20 05:22:21;;;;;;;87.30;51.80;;;;;;;1.07;80.22;99639.71;422955;1296;97892;-39
2022/10/20 05:32:29;;;;;;;66.40;40.00;;;;;;;1.08;80.05;99649.83;422935;1292;107966;-40
2022/10/20 05:42:36;;;;;;;130.20;74.50;;;;;;;1.02;80.11;99649.58;423230;1292;98551;-40
2022/10/20 05:52:44;;;;;;;147.70;69.50;;;;;;;0.87;80.39;99651.14;423067;1293;97876;-40
2022/10/20 06:02:53;;;;;;;104.00;54.80;;;;;;;0.86;80.40;99660.94;423019;1299;109598;-39
2022/10/20 06:13:00;;;;;;;98.20;51.80;;;;;;;1.27;80.62;99666.23;423102;1286;108538;-39
2022/10/20 06:23:07;;;;;;;70.50;36.60;;;;;;;1.77;80.55;99678.84;423031;1292;97126;-40
2022/10/20 06:33:15;;;;;;;69.80;36.10;;;;;;;2.01;80.50;99687.69;422468;1292;107381;-38
2022/10/20 06:43:22;;;;;;;71.40;35.00;;;;;;;2.13;80.70;99691.61;422937;1292;97895;-39
2022/10/20 06:53:30;;;;;;;83.10;44.50;;;;;;;2.38;80.87;99700.02;423193;1292;98036;-39
2022/10/20 07:03:39;;;;;;;42.80;27.40;;;;;;;2.88;80.98;99705.48;423161;1292;110324;-40
2022/10/20 07:13:48;;;;;;;39.30;23.70;;;;;;;4.18;81.76;99712.67;423398;1293;108693;-39
2022/10/20 07:34:03;;;;;;;35.30;23.70;;;;;;;8.36;81.61;99707.18;423366;1282;108880;-40
2022/10/20 07:44:30;;;;;;;41.60;25.40;;;;;;;9.27;80.55;99699.75;423084;1293;107560;-40
2022/10/20 07:54:37;;;;;;;42.50;24.10;;;;;;;9.95;79.74;99698.05;422951;1281;97575;-40
2022/10/20 08:04:44;;;;;;;33.80;22.90;;;;;;;10.34;79.29;99699.81;423245;1291;110056;-40
2022/10/20 08:14:52;;;;;;;31.00;18.90;;;;;;;10.14;78.03;99692.70;423317;1282;108163;-40
2022/10/20 08:25:19;;;;;;;22.90;14.00;;;;;;;10.34;77.76;99696.41;422725;1293;97867;-41
2022/10/20 08:35:27;;;;;;;29.70;16.90;;;;;;;10.52;76.96;99695.29;423003;1292;110911;-40
2022/10/20 08:45:34;;;;;;;22.70;14.60;;;;;;;10.64;76.49;99698.25;423341;1289;109243;-41
2022/10/20 08:55:45;;;;;;;20.00;11.50;;;;;;;10.52;75.47;99693.92;422787;1292;97893;-40
2022/10/20 09:05:55;;;;;;;17.20;10.70;;;;;;;10.38;75.19;99690.70;423205;1290;108875;-42
2022/10/20 09:16:06;;;;;;;17.90;9.90;;;;;;;10.27;73.82;99681.16;423025;1292;109151;-40
2022/10/20 09:26:12;;;;;;;5.70;2.90;;;;;;;9.93;73.19;99679.79;423006;1289;97858;-40
2022/10/20 09:36:43;;;;;;;6.20;3.10;;;;;;;10.06;72.73;99676.35;422812;1286;109926;-41
2022/10/20 09:46:52;;;;;;;5.40;2.10;;;;;;;10.03;70.67;99675.39;423005;1281;108222;-43
2022/10/20 09:57:03;;;;;;;7.10;3.00;;;;;;;10.15;70.38;99670.56;423322;1293;97261;-40
2022/10/20 10:07:15;;;;;;;2.90;2.30;;;;;;;10.55;70.66;99658.38;422977;1292;109669;-40
2022/10/20 10:17:29;;;;;;;5.60;2.60;;;;;;;10.97;69.56;99649.94;422916;1286;107525;-40
2022/10/20 10:27:37;;;;;;;5.20;2.40;;;;;;;10.92;67.79;99650.27;423102;1286;98583;-41
2022/10/20 10:37:46;;;;;;;9.00;3.30;;;;;;;10.96;68.06;99640.86;423234;1292;109673;-40
2022/10/20 10:48:08;;;;;;;2.70;1.50;;;;;;;10.71;66.79;99628.09;422948;1286;107945;-39
2022/10/20 10:58:21;;;;;;;1.70;1.10;;;;;;;10.93;66.32;99622.11;422899;1286;98184;-40
2022/10/20 11:08:41;;;;;;;3.00;1.40;;;;;;;11.35;66.52;99605.46;422946;1285;109834;-40
2022/10/20 11:19:11;;;;;;;1.50;1.10;;;;;;;11.15;64.77;99598.20;423306;1285;108484;-41
2022/10/20 11:29:24;;;;;;;3.50;1.60;;;;;;;10.94;65.11;99582.08;422671;1293;97857;-41
2022/10/20 11:39:34;;;;;;;6.00;3.00;;;;;;;10.93;64.67;99565.45;423058;1292;97857;-40
2022/10/20 11:49:42;;;;;;;7.80;1.80;;;;;;;11.02;64.74;99556.93;423540;1289;108940;-40
2022/10/20 12:00:17;;;;;;;4.30;2.50;;;;;;;11.05;64.34;99544.25;423116;1286;108683;-41
2022/10/20 12:20:55;;;;;;;7.80;2.20;;;;;;;10.90;62.97;99517.88;423132;1286;97926;-41
2022/10/20 12:31:04;;;;;;;4.30;1.70;;;;;;;11.03;62.88;99503.34;423139;1292;111837;-41
2022/10/20 12:41:26;;;;;;;2.40;1.70;;;;;;;10.99;62.93;99498.77;423102;1285;107827;-41
2022/10/20 12:51:34;;;;;;;2.20;1.50;;;;;;;11.05;62.78;99488.48;422915;1293;97874;-41
2022/10/20 13:12:39;;;;;;;4.30;2.00;;;;;;;10.99;61.97;99479.06;423122;1286;109773;-41
2022/10/20 13:22:45;;;;;;;4.10;1.80;;;;;;;10.93;61.21;99463.19;423036;1292;107692;-41
2022/10/20 13:32:53;;;;;;;4.10;2.20;;;;;;;10.93;61.53;99455.41;423095;1289;97861;-41
2022/10/20 13:43:35;;;;;;;9.00;2.90;;;;;;;10.94;61.66;99452.95;423002;1285;110896;-40
2022/10/20 13:53:43;;;;;;;2.20;1.80;;;;;;;10.79;61.28;99438.20;423029;1290;108851;-40
2022/10/20 14:03:51;;;;;;;3.40;2.10;;;;;;;10.68;61.45;99427.81;422919;1286;97867;-39
2022/10/20 14:25:48;;;;;;;2.70;1.60;;;;;;;10.46;61.80;99411.70;422978;1285;107192;-40
2022/10/20 14:36:01;;;;;;;9.10;3.00;;;;;;;10.28;61.68;99413.07;423052;1283;118273;-40
2022/10/20 14:46:08;;;;;;;6.30;2.50;;;;;;;10.08;62.06;99409.52;422987;1292;110311;-41
2022/10/20 14:56:21;;;;;;;9.00;3.40;;;;;;;9.89;62.37;99407.24;422847;1285;107936;-41
2022/10/20 15:06:29;;;;;;;5.70;3.00;;;;;;;9.63;62.47;99409.39;423023;1292;98001;-40
2022/10/20 15:16:35;;;;;;;11.50;4.50;;;;;;;9.39;62.89;99400.34;422862;1292;278167;-40
2022/10/20 15:26:42;;;;;;;15.90;6.50;;;;;;;9.12;63.30;99394.23;422840;1292;108194;-41
2022/10/20 15:36:45;;;;;;;12.40;6.60;;;;;;;8.84;63.68;99390.56;423016;1276;108229;-40
2022/10/20 15:46:57;;;;;;;12.40;6.10;;;;;;;8.60;64.02;99385.02;422756;1276;97063;-41
2022/10/20 15:57:04;;;;;;;16.20;6.70;;;;;;;8.36;64.32;99378.69;423093;1287;107535;-41
2022/10/20 16:07:11;;;;;;;21.20;10.30;;;;;;;8.10;64.88;99374.22;423074;1292;97999;-40
2022/10/20 16:17:18;;;;;;;23.90;12.80;;;;;;;7.77;65.33;99367.19;423124;1293;112010;-41
2022/10/20 16:27:26;;;;;;;22.40;11.30;;;;;;;7.45;65.72;99362.11;422939;1292;106998;-40
2022/10/20 16:37:33;;;;;;;56.70;22.60;;;;;;;7.17;66.15;99368.38;422906;1292;97854;-41
2022/10/20 16:47:41;;;;;;;75.80;32.00;;;;;;;7.04;66.41;99368.65;423393;1293;97521;-41
2022/10/20 16:57:50;;;;;;;93.80;39.50;;;;;;;6.87;66.86;99368.42;423164;1293;111025;-41
2022/10/20 17:07:58;;;;;;;87.30;39.40;;;;;;;6.76;67.37;99370.13;423016;1278;97860;-41
2022/10/20 17:18:03;;;;;;;41.50;21.60;;;;;;;6.62;67.49;99364.85;423067;1286;110880;-41
2022/10/20 17:28:11;;;;;;;51.40;22.80;;;;;;;6.49;67.93;99365.20;423283;1284;108113;-41
2022/10/20 17:38:18;;;;;;;37.80;17.90;;;;;;;6.37;68.16;99364.33;422904;1276;97881;-41
2022/10/20 17:48:26;;;;;;;30.40;16.50;;;;;;;6.37;68.62;99366.79;423011;1293;109860;-41
2022/10/20 17:58:33;;;;;;;25.80;14.80;;;;;;;6.36;68.79;99356.31;422820;1293;107574;-40
2022/10/20 18:08:42;;;;;;;30.90;16.70;;;;;;;6.21;68.91;99353.55;422864;1279;97490;-40
2022/10/20 18:18:50;;;;;;;35.00;18.40;;;;;;;6.02;69.07;99346.13;423053;1292;109611;-41
2022/10/20 18:28:58;;;;;;;24.00;14.60;;;;;;;5.89;69.08;99336.52;422976;1289;108088;-41
2022/10/20 18:39:02;;;;;;;24.30;14.20;;;;;;;5.81;69.42;99339.00;423094;1292;97474;-39
2022/10/20 18:49:11;;;;;;;40.90;20.80;;;;;;;5.71;69.85;99339.35;422969;1292;110079;-40
2022/10/20 18:59:18;;;;;;;36.20;19.10;;;;;;;5.53;70.00;99331.63;423026;1284;108106;-40
2022/10/20 19:09:25;;;;;;;34.70;19.60;;;;;;;5.31;70.29;99319.69;423261;1289;98260;-40
2022/10/20 19:19:32;;;;;;;20.10;11.60;;;;;;;5.20;70.33;99314.55;423160;1292;110850;-39
2022/10/20 19:29:39;;;;;;;26.50;13.70;;;;;;;5.15;70.50;99309.58;423277;1292;107147;-40
2022/10/20 19:39:47;;;;;;;35.40;18.90;;;;;;;5.06;70.80;99297.74;423085;1283;96616;-41
2022/10/20 19:49:54;;;;;;;40.70;21.10;;;;;;;4.84;70.90;99295.51;422974;1292;110735;-40
2022/10/20 20:00:01;;;;;;;30.30;20.00;;;;;;;4.66;71.11;99285.88;423116;1293;106675;-40
2022/10/20 20:10:09;;;;;;;29.30;15.80;;;;;;;4.57;71.23;99274.46;422984;1292;97640;-40
2022/10/20 20:20:17;;;;;;;26.30;15.40;;;;;;;4.55;71.47;99257.17;423167;1292;110513;-40
2022/10/20 20:30:24;;;;;;;41.20;19.60;;;;;;;4.49;71.49;99243.33;423066;1294;108639;-40
2022/10/20 20:40:31;;;;;;;27.80;19.10;;;;;;;4.39;71.87;99251.77;422925;1291;98178;-40
2022/10/20 20:50:38;;;;;;;39.30;19.80;;;;;;;4.26;72.15;99248.73;422962;1292;109456;-40
2022/10/20 21:00:46;;;;;;;35.10;16.40;;;;;;;4.20;72.13;99246.39;423043;1292;109108;-40
2022/10/20 21:10:53;;;;;;;24.80;13.30;;;;;;;4.19;72.12;99245.20;423163;1285;107588;-40
2022/10/20 21:21:05;;;;;;;26.70;14.10;;;;;;;4.15;72.07;99244.44;423201;1293;97866;-40
2022/10/20 21:41:22;;;;;;;30.50;16.10;;;;;;;3.91;72.46;99216.59;423008;1278;98046;-40
2022/10/20 21:51:32;;;;;;;28.40;15.00;;;;;;;3.81;72.86;99206.42;423047;1293;109035;-41
2022/10/20 22:01:39;;;;;;;24.50;15.20;;;;;;;3.72;73.03;99198.48;422762;1292;107915;-40
2022/10/20 22:11:49;;;;;;;22.10;12.50;;;;;;;3.69;72.94;99194.77;422939;1299;108220;-40
2022/10/20 22:21:58;;;;;;;20.20;13.00;;;;;;;3.76;73.12;99199.35;423309;1293;97857;-39
2022/10/20 22:32:04;;;;;;;25.30;14.60;;;;;;;3.72;73.16;99183.63;423031;1292;107892;-41
2022/10/20 22:42:11;;;;;;;50.10;22.80;;;;;;;3.73;73.45;99185.00;423332;1292;97932;-40
2022/10/20 22:52:19;;;;;;;46.00;24.20;;;;;;;3.52;73.21;99193.77;423298;1292;110445;-39
2022/10/20 23:02:26;;;;;;;44.70;24.80;;;;;;;3.16;73.40;99190.94;423117;1278;108703;-40
2022/10/20 23:12:34;;;;;;;32.80;20.10;;;;;;;2.95;73.57;99182.15;423058;1281;107056;-41
2022/10/20 23:22:41;;;;;;;28.40;16.70;;;;;;;2.88;73.88;99176.63;423443;1285;117367;-41
2022/10/20 23:32:47;;;;;;;32.10;15.70;;;;;;;2.94;74.13;99164.00;422935;1293;108454;-40
2022/10/20 23:42:54;;;;;;;22.10;13.70;;;;;;;3.07;74.48;99149.61;423171;1294;97531;-39
2022/10/20 23:53:02;;;;;;;32.20;16.80;;;;;;;3.16;74.61;99138.23;423168;1286;111522;-39
